sensor_id;sensor_type;location;lat;lon;timestamp;P1;durP1;ratioP1;P2;durP2;ratioP2
49392;SDS011;35268;42.642;23.308;2023-04-23T00:00:32;6.75;;;3.42;;
49392;SDS011;35268;42.642;23.308;2023-04-23T00:02:58;10.13;;;3.35;;
49392;SDS011;35268;42.642;23.308;2023-04-23T00:05:28;7.40;;;3.40;;
49392;SDS011;35268;42.642;23.308;2023-04-23T00:07:55;7.93;;;3.42;;
49392;SDS011;35268;42.642;23.308;2023-04-23T00:10:24;7.07;;;3.38;;
49392;SDS011;35268;42.642;23.308;2023-04-23T00:12:51;5.53;;;3.30;;
49392;SDS011;35268;42.642;23.308;2023-04-23T00:15:17;7.03;;;3.15;;
49392;SDS011;35268;42.642;23.308;2023-04-23T00:17:44;7.57;;;3.70;;
49392;SDS011;35268;42.642;23.308;2023-04-23T00:20:10;9.32;;;3.58;;
49392;SDS011;35268;42.642;23.308;2023-04-23T00:22:35;10.02;;;3.50;;
49392;SDS011;35268;42.642;23.308;2023-04-23T00:25:01;9.52;;;4.05;;
49392;SDS011;35268;42.642;23.308;2023-04-23T00:27:27;9.70;;;3.75;;
49392;SDS011;35268;42.642;23.308;2023-04-23T00:29:52;5.22;;;3.30;;
49392;SDS011;35268;42.642;23.308;2023-04-23T00:32:18;6.45;;;3.25;;
49392;SDS011;35268;42.642;23.308;2023-04-23T00:34:43;7.32;;;3.85;;
49392;SDS011;35268;42.642;23.308;2023-04-23T00:37:12;7.68;;;3.45;;
49392;SDS011;35268;42.642;23.308;2023-04-23T00:39:38;10.10;;;3.90;;
49392;SDS011;35268;42.642;23.308;2023-04-23T00:42:04;5.47;;;3.20;;
49392;SDS011;35268;42.642;23.308;2023-04-23T00:44:36;5.97;;;3.47;;
49392;SDS011;35268;42.642;23.308;2023-04-23T00:47:03;9.68;;;3.60;;
49392;SDS011;35268;42.642;23.308;2023-04-23T00:49:34;7.25;;;3.40;;
49392;SDS011;35268;42.642;23.308;2023-04-23T00:52:01;12.77;;;3.45;;
49392;SDS011;35268;42.642;23.308;2023-04-23T00:54:30;8.15;;;3.47;;
49392;SDS011;35268;42.642;23.308;2023-04-23T00:56:55;10.10;;;3.72;;
49392;SDS011;35268;42.642;23.308;2023-04-23T00:59:24;7.55;;;3.60;;
49392;SDS011;35268;42.642;23.308;2023-04-23T01:01:50;9.68;;;3.90;;
49392;SDS011;35268;42.642;23.308;2023-04-23T01:04:16;5.78;;;3.60;;
49392;SDS011;35268;42.642;23.308;2023-04-23T01:06:43;8.13;;;3.22;;
49392;SDS011;35268;42.642;23.308;2023-04-23T01:09:11;6.53;;;4.00;;
49392;SDS011;35268;42.642;23.308;2023-04-23T01:11:41;12.25;;;3.40;;
49392;SDS011;35268;42.642;23.308;2023-04-23T01:14:07;9.50;;;4.03;;
49392;SDS011;35268;42.642;23.308;2023-04-23T01:16:34;11.35;;;4.18;;
49392;SDS011;35268;42.642;23.308;2023-04-23T01:19:01;10.02;;;4.43;;
49392;SDS011;35268;42.642;23.308;2023-04-23T01:21:27;6.90;;;3.72;;
49392;SDS011;35268;42.642;23.308;2023-04-23T01:23:53;12.63;;;3.80;;
49392;SDS011;35268;42.642;23.308;2023-04-23T01:26:20;11.23;;;3.92;;
49392;SDS011;35268;42.642;23.308;2023-04-23T01:28:46;11.65;;;4.15;;
49392;SDS011;35268;42.642;23.308;2023-04-23T01:31:12;10.77;;;4.80;;
49392;SDS011;35268;42.642;23.308;2023-04-23T01:33:40;6.68;;;3.85;;
49392;SDS011;35268;42.642;23.308;2023-04-23T01:36:07;6.55;;;4.35;;
49392;SDS011;35268;42.642;23.308;2023-04-23T01:38:33;9.32;;;4.70;;
49392;SDS011;35268;42.642;23.308;2023-04-23T01:41:00;14.68;;;5.35;;
49392;SDS011;35268;42.642;23.308;2023-04-23T01:43:26;9.82;;;5.05;;
49392;SDS011;35268;42.642;23.308;2023-04-23T01:45:52;7.70;;;4.50;;
49392;SDS011;35268;42.642;23.308;2023-04-23T01:48:17;11.52;;;5.47;;
49392;SDS011;35268;42.642;23.308;2023-04-23T01:50:43;8.98;;;4.88;;
49392;SDS011;35268;42.642;23.308;2023-04-23T01:53:09;9.95;;;4.80;;
49392;SDS011;35268;42.642;23.308;2023-04-23T01:55:37;8.15;;;4.95;;
49392;SDS011;35268;42.642;23.308;2023-04-23T01:58:04;8.38;;;4.38;;
49392;SDS011;35268;42.642;23.308;2023-04-23T02:00:30;12.27;;;4.50;;
49392;SDS011;35268;42.642;23.308;2023-04-23T02:02:55;7.88;;;4.05;;
49392;SDS011;35268;42.642;23.308;2023-04-23T02:05:21;10.48;;;5.70;;
49392;SDS011;35268;42.642;23.308;2023-04-23T02:07:47;16.98;;;4.55;;
49392;SDS011;35268;42.642;23.308;2023-04-23T02:10:14;15.10;;;5.63;;
49392;SDS011;35268;42.642;23.308;2023-04-23T02:12:40;6.53;;;4.60;;
49392;SDS011;35268;42.642;23.308;2023-04-23T02:15:06;11.38;;;5.07;;
49392;SDS011;35268;42.642;23.308;2023-04-23T02:17:33;15.02;;;4.78;;
49392;SDS011;35268;42.642;23.308;2023-04-23T02:19:59;8.02;;;4.95;;
49392;SDS011;35268;42.642;23.308;2023-04-23T02:22:25;10.18;;;5.25;;
49392;SDS011;35268;42.642;23.308;2023-04-23T02:24:52;9.18;;;4.75;;
49392;SDS011;35268;42.642;23.308;2023-04-23T02:27:18;9.23;;;4.55;;
49392;SDS011;35268;42.642;23.308;2023-04-23T02:29:44;8.63;;;5.35;;
49392;SDS011;35268;42.642;23.308;2023-04-23T02:32:10;13.32;;;6.10;;
49392;SDS011;35268;42.642;23.308;2023-04-23T02:34:36;13.88;;;6.18;;
49392;SDS011;35268;42.642;23.308;2023-04-23T02:37:01;12.85;;;6.53;;
49392;SDS011;35268;42.642;23.308;2023-04-23T02:39:29;15.35;;;6.40;;
49392;SDS011;35268;42.642;23.308;2023-04-23T02:41:55;14.15;;;6.45;;
49392;SDS011;35268;42.642;23.308;2023-04-23T02:44:20;12.80;;;5.60;;
49392;SDS011;35268;42.642;23.308;2023-04-23T02:46:46;9.80;;;5.22;;
49392;SDS011;35268;42.642;23.308;2023-04-23T02:49:11;10.00;;;5.68;;
49392;SDS011;35268;42.642;23.308;2023-04-23T02:51:38;11.38;;;5.55;;
49392;SDS011;35268;42.642;23.308;2023-04-23T02:54:04;14.82;;;6.30;;
49392;SDS011;35268;42.642;23.308;2023-04-23T02:56:30;15.45;;;5.70;;
49392;SDS011;35268;42.642;23.308;2023-04-23T02:58:55;15.05;;;6.13;;
49392;SDS011;35268;42.642;23.308;2023-04-23T03:01:20;20.05;;;6.72;;
49392;SDS011;35268;42.642;23.308;2023-04-23T03:03:46;11.32;;;5.57;;
49392;SDS011;35268;42.642;23.308;2023-04-23T03:06:12;6.93;;;4.32;;
49392;SDS011;35268;42.642;23.308;2023-04-23T03:08:37;13.85;;;5.53;;
49392;SDS011;35268;42.642;23.308;2023-04-23T03:11:03;14.70;;;5.15;;
49392;SDS011;35268;42.642;23.308;2023-04-23T03:13:28;13.05;;;5.65;;
49392;SDS011;35268;42.642;23.308;2023-04-23T03:15:54;13.65;;;5.80;;
49392;SDS011;35268;42.642;23.308;2023-04-23T03:18:20;8.50;;;5.20;;
49392;SDS011;35268;42.642;23.308;2023-04-23T03:20:45;13.65;;;6.30;;
49392;SDS011;35268;42.642;23.308;2023-04-23T03:23:11;11.70;;;6.10;;
49392;SDS011;35268;42.642;23.308;2023-04-23T03:25:37;9.63;;;6.10;;
49392;SDS011;35268;42.642;23.308;2023-04-23T03:28:02;14.50;;;6.32;;
49392;SDS011;35268;42.642;23.308;2023-04-23T03:30:28;10.68;;;6.05;;
49392;SDS011;35268;42.642;23.308;2023-04-23T03:32:54;13.85;;;6.43;;
49392;SDS011;35268;42.642;23.308;2023-04-23T03:35:21;15.70;;;6.47;;
49392;SDS011;35268;42.642;23.308;2023-04-23T03:37:47;14.98;;;6.35;;
49392;SDS011;35268;42.642;23.308;2023-04-23T03:40:12;10.95;;;6.05;;
49392;SDS011;35268;42.642;23.308;2023-04-23T03:42:38;13.07;;;6.07;;
49392;SDS011;35268;42.642;23.308;2023-04-23T03:45:04;10.68;;;6.40;;
49392;SDS011;35268;42.642;23.308;2023-04-23T03:47:29;13.70;;;7.25;;
49392;SDS011;35268;42.642;23.308;2023-04-23T03:49:55;10.35;;;5.90;;
49392;SDS011;35268;42.642;23.308;2023-04-23T03:52:21;16.60;;;6.45;;
49392;SDS011;35268;42.642;23.308;2023-04-23T03:54:46;11.85;;;6.63;;
49392;SDS011;35268;42.642;23.308;2023-04-23T03:57:12;20.35;;;7.20;;
49392;SDS011;35268;42.642;23.308;2023-04-23T03:59:37;12.23;;;6.30;;
49392;SDS011;35268;42.642;23.308;2023-04-23T04:02:03;11.80;;;6.18;;
49392;SDS011;35268;42.642;23.308;2023-04-23T04:04:29;15.30;;;7.47;;
49392;SDS011;35268;42.642;23.308;2023-04-23T04:06:55;13.38;;;7.05;;
49392;SDS011;35268;42.642;23.308;2023-04-23T04:09:21;14.05;;;7.85;;
49392;SDS011;35268;42.642;23.308;2023-04-23T04:11:47;14.35;;;7.28;;
49392;SDS011;35268;42.642;23.308;2023-04-23T04:14:12;13.20;;;6.40;;
49392;SDS011;35268;42.642;23.308;2023-04-23T04:16:38;15.65;;;6.55;;
49392;SDS011;35268;42.642;23.308;2023-04-23T04:19:04;11.57;;;7.20;;
49392;SDS011;35268;42.642;23.308;2023-04-23T04:21:29;16.50;;;7.13;;
49392;SDS011;35268;42.642;23.308;2023-04-23T04:23:57;13.15;;;7.60;;
49392;SDS011;35268;42.642;23.308;2023-04-23T04:26:22;17.83;;;8.05;;
49392;SDS011;35268;42.642;23.308;2023-04-23T04:28:48;14.88;;;7.32;;
49392;SDS011;35268;42.642;23.308;2023-04-23T04:31:13;14.30;;;7.32;;
49392;SDS011;35268;42.642;23.308;2023-04-23T04:33:40;22.05;;;8.73;;
49392;SDS011;35268;42.642;23.308;2023-04-23T04:36:05;14.38;;;7.90;;
49392;SDS011;35268;42.642;23.308;2023-04-23T04:38:33;19.25;;;8.18;;
49392;SDS011;35268;42.642;23.308;2023-04-23T04:41:01;18.02;;;8.45;;
49392;SDS011;35268;42.642;23.308;2023-04-23T04:43:31;19.85;;;7.82;;
49392;SDS011;35268;42.642;23.308;2023-04-23T04:45:58;20.48;;;8.00;;
49392;SDS011;35268;42.642;23.308;2023-04-23T04:48:24;11.05;;;7.32;;
49392;SDS011;35268;42.642;23.308;2023-04-23T04:50:49;29.67;;;9.07;;
49392;SDS011;35268;42.642;23.308;2023-04-23T04:53:16;18.85;;;8.80;;
49392;SDS011;35268;42.642;23.308;2023-04-23T04:55:41;16.48;;;8.43;;
49392;SDS011;35268;42.642;23.308;2023-04-23T04:58:07;18.77;;;8.77;;
49392;SDS011;35268;42.642;23.308;2023-04-23T05:00:32;21.27;;;7.93;;
49392;SDS011;35268;42.642;23.308;2023-04-23T05:02:58;14.75;;;8.15;;
49392;SDS011;35268;42.642;23.308;2023-04-23T05:05:25;17.52;;;8.40;;
49392;SDS011;35268;42.642;23.308;2023-04-23T05:07:51;12.48;;;7.90;;
49392;SDS011;35268;42.642;23.308;2023-04-23T05:10:18;12.95;;;8.00;;
49392;SDS011;35268;42.642;23.308;2023-04-23T05:12:44;12.50;;;7.40;;
49392;SDS011;35268;42.642;23.308;2023-04-23T05:15:11;15.10;;;7.65;;
49392;SDS011;35268;42.642;23.308;2023-04-23T05:17:38;15.68;;;6.60;;
49392;SDS011;35268;42.642;23.308;2023-04-23T05:20:04;15.18;;;7.53;;
49392;SDS011;35268;42.642;23.308;2023-04-23T05:22:30;12.57;;;6.78;;
49392;SDS011;35268;42.642;23.308;2023-04-23T05:24:55;17.10;;;6.90;;
49392;SDS011;35268;42.642;23.308;2023-04-23T05:27:21;10.70;;;6.28;;
49392;SDS011;35268;42.642;23.308;2023-04-23T05:29:49;9.35;;;5.88;;
49392;SDS011;35268;42.642;23.308;2023-04-23T05:32:14;14.00;;;6.30;;
49392;SDS011;35268;42.642;23.308;2023-04-23T05:34:40;11.50;;;6.05;;
49392;SDS011;35268;42.642;23.308;2023-04-23T05:37:05;24.40;;;7.93;;
49392;SDS011;35268;42.642;23.308;2023-04-23T05:39:31;10.23;;;6.68;;
49392;SDS011;35268;42.642;23.308;2023-04-23T05:41:56;20.08;;;6.68;;
49392;SDS011;35268;42.642;23.308;2023-04-23T05:44:22;11.80;;;6.60;;
49392;SDS011;35268;42.642;23.308;2023-04-23T05:46:48;12.77;;;6.65;;
49392;SDS011;35268;42.642;23.308;2023-04-23T05:49:13;11.35;;;7.57;;
49392;SDS011;35268;42.642;23.308;2023-04-23T05:51:39;11.60;;;6.57;;
49392;SDS011;35268;42.642;23.308;2023-04-23T05:54:04;11.52;;;7.15;;
49392;SDS011;35268;42.642;23.308;2023-04-23T05:56:30;10.98;;;6.32;;
49392;SDS011;35268;42.642;23.308;2023-04-23T05:58:55;12.40;;;6.60;;
49392;SDS011;35268;42.642;23.308;2023-04-23T06:01:21;21.45;;;7.47;;
49392;SDS011;35268;42.642;23.308;2023-04-23T06:03:46;13.25;;;7.35;;
49392;SDS011;35268;42.642;23.308;2023-04-23T06:06:12;14.27;;;8.05;;
49392;SDS011;35268;42.642;23.308;2023-04-23T06:08:37;9.13;;;6.18;;
49392;SDS011;35268;42.642;23.308;2023-04-23T06:11:03;17.15;;;7.75;;
49392;SDS011;35268;42.642;23.308;2023-04-23T06:13:29;14.60;;;6.90;;
49392;SDS011;35268;42.642;23.308;2023-04-23T06:15:55;11.57;;;7.85;;
49392;SDS011;35268;42.642;23.308;2023-04-23T06:18:21;13.38;;;7.95;;
49392;SDS011;35268;42.642;23.308;2023-04-23T06:20:46;14.48;;;7.53;;
49392;SDS011;35268;42.642;23.308;2023-04-23T06:23:13;11.23;;;7.18;;
49392;SDS011;35268;42.642;23.308;2023-04-23T06:25:38;10.98;;;7.72;;
49392;SDS011;35268;42.642;23.308;2023-04-23T06:28:04;14.30;;;7.18;;
49392;SDS011;35268;42.642;23.308;2023-04-23T06:30:30;14.30;;;7.05;;
49392;SDS011;35268;42.642;23.308;2023-04-23T06:32:56;16.08;;;7.05;;
49392;SDS011;35268;42.642;23.308;2023-04-23T06:35:21;11.07;;;7.28;;
49392;SDS011;35268;42.642;23.308;2023-04-23T06:37:46;11.75;;;7.05;;
49392;SDS011;35268;42.642;23.308;2023-04-23T06:40:12;12.15;;;7.03;;
49392;SDS011;35268;42.642;23.308;2023-04-23T06:42:38;11.55;;;7.00;;
49392;SDS011;35268;42.642;23.308;2023-04-23T06:45:04;12.38;;;7.57;;
49392;SDS011;35268;42.642;23.308;2023-04-23T06:47:30;19.23;;;7.75;;
49392;SDS011;35268;42.642;23.308;2023-04-23T06:49:59;12.05;;;7.00;;
49392;SDS011;35268;42.642;23.308;2023-04-23T06:52:24;17.63;;;7.15;;
49392;SDS011;35268;42.642;23.308;2023-04-23T06:54:50;15.48;;;7.32;;
49392;SDS011;35268;42.642;23.308;2023-04-23T06:57:16;15.68;;;6.55;;
49392;SDS011;35268;42.642;23.308;2023-04-23T06:59:41;10.55;;;6.43;;
49392;SDS011;35268;42.642;23.308;2023-04-23T07:02:07;19.70;;;7.82;;
49392;SDS011;35268;42.642;23.308;2023-04-23T07:04:32;9.55;;;6.32;;
49392;SDS011;35268;42.642;23.308;2023-04-23T07:06:58;13.80;;;6.38;;
49392;SDS011;35268;42.642;23.308;2023-04-23T07:09:25;12.82;;;6.40;;
49392;SDS011;35268;42.642;23.308;2023-04-23T07:11:51;10.32;;;6.30;;
49392;SDS011;35268;42.642;23.308;2023-04-23T07:14:16;10.50;;;6.22;;
49392;SDS011;35268;42.642;23.308;2023-04-23T07:16:42;15.55;;;7.28;;
49392;SDS011;35268;42.642;23.308;2023-04-23T07:19:07;11.32;;;6.38;;
49392;SDS011;35268;42.642;23.308;2023-04-23T07:21:33;11.57;;;6.32;;
49392;SDS011;35268;42.642;23.308;2023-04-23T07:23:58;14.48;;;6.22;;
49392;SDS011;35268;42.642;23.308;2023-04-23T07:26:24;13.68;;;6.78;;
49392;SDS011;35268;42.642;23.308;2023-04-23T07:28:51;12.40;;;6.32;;
49392;SDS011;35268;42.642;23.308;2023-04-23T07:31:17;15.32;;;6.47;;
49392;SDS011;35268;42.642;23.308;2023-04-23T07:33:43;10.60;;;6.50;;
49392;SDS011;35268;42.642;23.308;2023-04-23T07:36:09;11.90;;;7.18;;
49392;SDS011;35268;42.642;23.308;2023-04-23T07:38:34;16.88;;;6.80;;
49392;SDS011;35268;42.642;23.308;2023-04-23T07:41:00;21.75;;;7.50;;
49392;SDS011;35268;42.642;23.308;2023-04-23T07:43:26;15.35;;;6.78;;
49392;SDS011;35268;42.642;23.308;2023-04-23T07:45:51;10.00;;;6.15;;
49392;SDS011;35268;42.642;23.308;2023-04-23T07:48:17;13.95;;;6.63;;
49392;SDS011;35268;42.642;23.308;2023-04-23T07:50:42;15.90;;;6.68;;
49392;SDS011;35268;42.642;23.308;2023-04-23T07:53:08;13.07;;;6.85;;
49392;SDS011;35268;42.642;23.308;2023-04-23T07:55:33;10.00;;;6.15;;
49392;SDS011;35268;42.642;23.308;2023-04-23T07:57:58;14.60;;;7.03;;
49392;SDS011;35268;42.642;23.308;2023-04-23T08:00:24;16.67;;;7.18;;
49392;SDS011;35268;42.642;23.308;2023-04-23T08:02:49;12.27;;;6.60;;
49392;SDS011;35268;42.642;23.308;2023-04-23T08:05:17;13.85;;;5.97;;
49392;SDS011;35268;42.642;23.308;2023-04-23T08:07:42;16.52;;;6.55;;
49392;SDS011;35268;42.642;23.308;2023-04-23T08:10:07;15.48;;;5.65;;
49392;SDS011;35268;42.642;23.308;2023-04-23T08:12:33;16.02;;;5.70;;
49392;SDS011;35268;42.642;23.308;2023-04-23T08:15:00;9.18;;;6.20;;
49392;SDS011;35268;42.642;23.308;2023-04-23T08:17:25;8.95;;;5.43;;
49392;SDS011;35268;42.642;23.308;2023-04-23T08:19:51;14.25;;;5.90;;
49392;SDS011;35268;42.642;23.308;2023-04-23T08:22:16;8.35;;;5.72;;
49392;SDS011;35268;42.642;23.308;2023-04-23T08:24:42;13.27;;;6.18;;
49392;SDS011;35268;42.642;23.308;2023-04-23T08:27:09;10.63;;;5.70;;
49392;SDS011;35268;42.642;23.308;2023-04-23T08:29:34;15.68;;;6.95;;
49392;SDS011;35268;42.642;23.308;2023-04-23T08:32:00;7.88;;;5.90;;
49392;SDS011;35268;42.642;23.308;2023-04-23T08:34:25;10.02;;;6.43;;
49392;SDS011;35268;42.642;23.308;2023-04-23T08:36:51;11.63;;;6.15;;
49392;SDS011;35268;42.642;23.308;2023-04-23T08:39:16;8.40;;;5.40;;
49392;SDS011;35268;42.642;23.308;2023-04-23T08:41:42;9.40;;;5.47;;
49392;SDS011;35268;42.642;23.308;2023-04-23T08:44:23;11.30;;;6.55;;
49392;SDS011;35268;42.642;23.308;2023-04-23T08:46:49;8.48;;;5.78;;
49392;SDS011;35268;42.642;23.308;2023-04-23T08:49:17;8.43;;;5.78;;
49392;SDS011;35268;42.642;23.308;2023-04-23T08:51:52;11.95;;;5.53;;
49392;SDS011;35268;42.642;23.308;2023-04-23T08:54:20;8.40;;;4.78;;
49392;SDS011;35268;42.642;23.308;2023-04-23T08:56:50;9.75;;;5.22;;
49392;SDS011;35268;42.642;23.308;2023-04-23T08:59:19;8.88;;;5.47;;
49392;SDS011;35268;42.642;23.308;2023-04-23T09:01:47;8.60;;;5.30;;
49392;SDS011;35268;42.642;23.308;2023-04-23T09:04:12;12.82;;;5.63;;
49392;SDS011;35268;42.642;23.308;2023-04-23T09:06:40;11.82;;;6.30;;
49392;SDS011;35268;42.642;23.308;2023-04-23T09:09:07;9.40;;;5.63;;
49392;SDS011;35268;42.642;23.308;2023-04-23T09:11:34;13.55;;;6.35;;
49392;SDS011;35268;42.642;23.308;2023-04-23T09:14:01;11.80;;;5.82;;
49392;SDS011;35268;42.642;23.308;2023-04-23T09:16:26;20.60;;;5.40;;
49392;SDS011;35268;42.642;23.308;2023-04-23T09:18:52;12.73;;;5.35;;
49392;SDS011;35268;42.642;23.308;2023-04-23T09:21:18;11.82;;;5.80;;
49392;SDS011;35268;42.642;23.308;2023-04-23T09:23:44;10.65;;;5.20;;
49392;SDS011;35268;42.642;23.308;2023-04-23T09:26:10;9.43;;;5.05;;
49392;SDS011;35268;42.642;23.308;2023-04-23T09:28:44;10.57;;;5.57;;
49392;SDS011;35268;42.642;23.308;2023-04-23T09:31:14;15.88;;;5.40;;
49392;SDS011;35268;42.642;23.308;2023-04-23T09:33:43;9.60;;;5.70;;
49392;SDS011;35268;42.642;23.308;2023-04-23T09:36:15;12.73;;;5.30;;
49392;SDS011;35268;42.642;23.308;2023-04-23T09:38:41;9.18;;;4.93;;
49392;SDS011;35268;42.642;23.308;2023-04-23T09:41:25;7.63;;;5.75;;
49392;SDS011;35268;42.642;23.308;2023-04-23T09:43:55;8.88;;;5.32;;
49392;SDS011;35268;42.642;23.308;2023-04-23T09:46:37;12.32;;;5.80;;
49392;SDS011;35268;42.642;23.308;2023-04-23T09:49:05;8.00;;;5.00;;
49392;SDS011;35268;42.642;23.308;2023-04-23T09:51:41;7.00;;;4.95;;
49392;SDS011;35268;42.642;23.308;2023-04-23T09:54:19;9.88;;;4.70;;
49392;SDS011;35268;42.642;23.308;2023-04-23T09:56:50;12.88;;;5.63;;
49392;SDS011;35268;42.642;23.308;2023-04-23T09:59:27;8.73;;;4.72;;
49392;SDS011;35268;42.642;23.308;2023-04-23T10:01:54;10.55;;;5.20;;
49392;SDS011;35268;42.642;23.308;2023-04-23T10:04:21;14.23;;;5.07;;
49392;SDS011;35268;42.642;23.308;2023-04-23T10:06:55;11.73;;;5.93;;
49392;SDS011;35268;42.642;23.308;2023-04-23T10:09:22;9.60;;;5.10;;
49392;SDS011;35268;42.642;23.308;2023-04-23T10:11:51;11.25;;;5.45;;
49392;SDS011;35268;42.642;23.308;2023-04-23T10:14:21;12.23;;;5.10;;
49392;SDS011;35268;42.642;23.308;2023-04-23T10:16:51;13.30;;;4.93;;
49392;SDS011;35268;42.642;23.308;2023-04-23T10:19:22;8.48;;;4.85;;
49392;SDS011;35268;42.642;23.308;2023-04-23T10:21:49;12.80;;;5.40;;
49392;SDS011;35268;42.642;23.308;2023-04-23T10:24:22;9.93;;;4.80;;
49392;SDS011;35268;42.642;23.308;2023-04-23T10:26:49;8.35;;;4.60;;
49392;SDS011;35268;42.642;23.308;2023-04-23T10:29:18;9.63;;;5.10;;
49392;SDS011;35268;42.642;23.308;2023-04-23T10:31:51;10.20;;;4.65;;
49392;SDS011;35268;42.642;23.308;2023-04-23T10:34:18;8.38;;;4.60;;
49392;SDS011;35268;42.642;23.308;2023-04-23T10:36:44;13.32;;;4.60;;
49392;SDS011;35268;42.642;23.308;2023-04-23T10:39:10;7.35;;;4.15;;
49392;SDS011;35268;42.642;23.308;2023-04-23T10:41:38;7.25;;;4.60;;
49392;SDS011;35268;42.642;23.308;2023-04-23T10:44:05;11.98;;;4.47;;
49392;SDS011;35268;42.642;23.308;2023-04-23T10:46:35;8.38;;;4.22;;
49392;SDS011;35268;42.642;23.308;2023-04-23T10:51:38;6.88;;;4.15;;
49392;SDS011;35268;42.642;23.308;2023-04-23T10:54:06;11.05;;;4.32;;
49392;SDS011;35268;42.642;23.308;2023-04-23T10:56:33;8.13;;;4.40;;
49392;SDS011;35268;42.642;23.308;2023-04-23T10:58:59;8.52;;;4.40;;
49392;SDS011;35268;42.642;23.308;2023-04-23T11:01:26;8.05;;;4.43;;
49392;SDS011;35268;42.642;23.308;2023-04-23T11:03:52;6.72;;;3.90;;
49392;SDS011;35268;42.642;23.308;2023-04-23T11:07:04;10.52;;;4.45;;
49392;SDS011;35268;42.642;23.308;2023-04-23T11:09:29;8.05;;;3.92;;
49392;SDS011;35268;42.642;23.308;2023-04-23T11:12:00;9.60;;;4.18;;
49392;SDS011;35268;42.642;23.308;2023-04-23T11:14:46;11.85;;;3.90;;
49392;SDS011;35268;42.642;23.308;2023-04-23T11:17:14;6.22;;;3.63;;
49392;SDS011;35268;42.642;23.308;2023-04-23T11:19:41;6.63;;;3.60;;
49392;SDS011;35268;42.642;23.308;2023-04-23T11:22:26;8.40;;;3.70;;
49392;SDS011;35268;42.642;23.308;2023-04-23T11:24:58;10.55;;;4.22;;
49392;SDS011;35268;42.642;23.308;2023-04-23T11:27:23;4.55;;;3.28;;
49392;SDS011;35268;42.642;23.308;2023-04-23T11:29:49;8.60;;;4.00;;
49392;SDS011;35268;42.642;23.308;2023-04-23T11:32:16;13.38;;;3.80;;
49392;SDS011;35268;42.642;23.308;2023-04-23T11:34:43;11.82;;;3.65;;
49392;SDS011;35268;42.642;23.308;2023-04-23T11:37:10;8.82;;;3.30;;
49392;SDS011;35268;42.642;23.308;2023-04-23T11:39:36;7.53;;;3.15;;
49392;SDS011;35268;42.642;23.308;2023-04-23T11:42:02;8.60;;;4.07;;
49392;SDS011;35268;42.642;23.308;2023-04-23T11:44:29;10.73;;;4.20;;
49392;SDS011;35268;42.642;23.308;2023-04-23T11:46:57;7.22;;;4.50;;
49392;SDS011;35268;42.642;23.308;2023-04-23T11:49:24;7.50;;;3.88;;
49392;SDS011;35268;42.642;23.308;2023-04-23T11:51:50;7.50;;;3.88;;
49392;SDS011;35268;42.642;23.308;2023-04-23T11:54:15;8.13;;;3.67;;
49392;SDS011;35268;42.642;23.308;2023-04-23T11:56:41;7.40;;;3.40;;
49392;SDS011;35268;42.642;23.308;2023-04-23T11:59:07;7.47;;;3.08;;
49392;SDS011;35268;42.642;23.308;2023-04-23T12:04:17;6.10;;;3.20;;
49392;SDS011;35268;42.642;23.308;2023-04-23T12:06:44;5.28;;;3.13;;
49392;SDS011;35268;42.642;23.308;2023-04-23T12:09:11;6.47;;;3.67;;
49392;SDS011;35268;42.642;23.308;2023-04-23T12:11:41;7.18;;;3.20;;
49392;SDS011;35268;42.642;23.308;2023-04-23T12:14:08;6.88;;;3.08;;
49392;SDS011;35268;42.642;23.308;2023-04-23T12:16:42;7.75;;;2.83;;
49392;SDS011;35268;42.642;23.308;2023-04-23T12:19:13;8.32;;;3.00;;
49392;SDS011;35268;42.642;23.308;2023-04-23T12:21:47;5.65;;;2.97;;
49392;SDS011;35268;42.642;23.308;2023-04-23T12:24:20;6.05;;;2.67;;
49392;SDS011;35268;42.642;23.308;2023-04-23T12:26:54;6.80;;;2.65;;
49392;SDS011;35268;42.642;23.308;2023-04-23T12:29:22;5.28;;;2.97;;
49392;SDS011;35268;42.642;23.308;2023-04-23T12:31:52;3.60;;;2.15;;
49392;SDS011;35268;42.642;23.308;2023-04-23T12:34:18;7.65;;;2.22;;
49392;SDS011;35268;42.642;23.308;2023-04-23T12:36:52;6.47;;;3.10;;
49392;SDS011;35268;42.642;23.308;2023-04-23T12:39:52;12.73;;;2.20;;
49392;SDS011;35268;42.642;23.308;2023-04-23T12:42:11;11.57;;;2.88;;
49392;SDS011;35268;42.642;23.308;2023-04-23T12:44:37;10.07;;;2.78;;
49392;SDS011;35268;42.642;23.308;2023-04-23T12:47:03;6.82;;;2.95;;
49392;SDS011;35268;42.642;23.308;2023-04-23T12:49:31;6.18;;;2.63;;
49392;SDS011;35268;42.642;23.308;2023-04-23T12:51:58;7.05;;;3.55;;
49392;SDS011;35268;42.642;23.308;2023-04-23T12:54:25;4.03;;;2.45;;
49392;SDS011;35268;42.642;23.308;2023-04-23T12:56:52;10.93;;;3.20;;
49392;SDS011;35268;42.642;23.308;2023-04-23T12:59:17;4.35;;;2.60;;
49392;SDS011;35268;42.642;23.308;2023-04-23T13:01:43;8.85;;;2.92;;
49392;SDS011;35268;42.642;23.308;2023-04-23T13:04:08;8.55;;;3.38;;
49392;SDS011;35268;42.642;23.308;2023-04-23T13:06:34;8.85;;;2.65;;
49392;SDS011;35268;42.642;23.308;2023-04-23T13:09:00;4.85;;;2.58;;
49392;SDS011;35268;42.642;23.308;2023-04-23T13:11:29;7.28;;;2.70;;
49392;SDS011;35268;42.642;23.308;2023-04-23T13:13:55;8.05;;;2.65;;
49392;SDS011;35268;42.642;23.308;2023-04-23T13:16:21;8.85;;;2.60;;
49392;SDS011;35268;42.642;23.308;2023-04-23T13:18:47;6.85;;;2.70;;
49392;SDS011;35268;42.642;23.308;2023-04-23T13:21:15;6.13;;;2.67;;
49392;SDS011;35268;42.642;23.308;2023-04-23T13:23:41;6.68;;;2.53;;
49392;SDS011;35268;42.642;23.308;2023-04-23T13:26:06;11.27;;;3.35;;
49392;SDS011;35268;42.642;23.308;2023-04-23T13:28:32;7.80;;;2.55;;
49392;SDS011;35268;42.642;23.308;2023-04-23T13:30:59;3.78;;;2.40;;
49392;SDS011;35268;42.642;23.308;2023-04-23T13:33:25;8.25;;;2.42;;
49392;SDS011;35268;42.642;23.308;2023-04-23T13:35:50;3.72;;;2.47;;
49392;SDS011;35268;42.642;23.308;2023-04-23T13:38:15;4.15;;;2.45;;
49392;SDS011;35268;42.642;23.308;2023-04-23T13:40:41;5.32;;;2.90;;
49392;SDS011;35268;42.642;23.308;2023-04-23T13:43:06;12.85;;;3.00;;
49392;SDS011;35268;42.642;23.308;2023-04-23T13:45:32;5.38;;;2.63;;
49392;SDS011;35268;42.642;23.308;2023-04-23T13:47:57;4.93;;;2.58;;
49392;SDS011;35268;42.642;23.308;2023-04-23T13:50:26;7.35;;;3.00;;
49392;SDS011;35268;42.642;23.308;2023-04-23T13:52:51;6.00;;;2.55;;
49392;SDS011;35268;42.642;23.308;2023-04-23T13:55:17;5.25;;;2.72;;
49392;SDS011;35268;42.642;23.308;2023-04-23T13:57:43;8.18;;;2.53;;
49392;SDS011;35268;42.642;23.308;2023-04-23T14:00:08;5.50;;;2.70;;
49392;SDS011;35268;42.642;23.308;2023-04-23T14:02:35;10.90;;;3.20;;
49392;SDS011;35268;42.642;23.308;2023-04-23T14:05:00;10.98;;;2.88;;
49392;SDS011;35268;42.642;23.308;2023-04-23T14:07:28;7.03;;;3.15;;
49392;SDS011;35268;42.642;23.308;2023-04-23T14:09:53;5.63;;;2.83;;
49392;SDS011;35268;42.642;23.308;2023-04-23T14:12:19;4.32;;;2.30;;
49392;SDS011;35268;42.642;23.308;2023-04-23T14:14:45;5.28;;;3.25;;
49392;SDS011;35268;42.642;23.308;2023-04-23T14:17:10;7.47;;;2.60;;
49392;SDS011;35268;42.642;23.308;2023-04-23T14:19:36;5.32;;;2.80;;
49392;SDS011;35268;42.642;23.308;2023-04-23T14:22:03;11.75;;;2.63;;
49392;SDS011;35268;42.642;23.308;2023-04-23T14:24:38;7.03;;;2.72;;
49392;SDS011;35268;42.642;23.308;2023-04-23T14:27:09;5.43;;;2.88;;
49392;SDS011;35268;42.642;23.308;2023-04-23T14:32:03;4.65;;;2.38;;